createdAt,value
2022-11-14T00:00:56.586Z,9.719188
2022-11-14T00:01:56.491Z,9.719166
2022-11-14T00:02:56.531Z,9.719215
2022-11-14T00:03:56.486Z,9.719205
2022-11-14T00:04:56.478Z,9.719035
2022-11-14T00:05:56.453Z,9.719162
2022-11-14T00:06:56.487Z,9.719127
2022-11-14T00:07:56.522Z,9.719109
2022-11-14T00:08:56.425Z,9.719194
2022-11-14T00:09:56.437Z,9.719173
2022-11-14T00:10:56.408Z,9.719153
2022-11-14T00:11:56.424Z,9.719070
2022-11-14T00:12:56.397Z,9.719128
2022-11-14T00:13:56.380Z,9.719160
2022-11-14T00:14:56.373Z,9.719256
2022-11-14T00:15:56.388Z,9.719496
2022-11-14T00:16:56.444Z,9.719600
2022-11-14T00:17:56.347Z,9.719634
2022-11-14T00:18:56.335Z,9.719456
2022-11-14T00:19:56.328Z,9.719428
2022-11-14T00:20:56.332Z,9.719401
2022-11-14T00:21:56.381Z,9.719399
2022-11-14T00:22:56.336Z,9.719381
2022-11-14T00:23:56.287Z,9.719374
2022-11-14T00:24:56.276Z,9.719419
2022-11-14T00:25:56.284Z,9.719394
2022-11-14T00:26:56.248Z,9.719317
2022-11-14T00:27:56.266Z,9.719151
2022-11-14T00:28:56.245Z,9.719165
2022-11-14T00:29:56.223Z,9.719151
2022-11-14T00:30:56.289Z,9.718747
2022-11-14T00:31:56.263Z,9.718863
2022-11-14T00:32:56.268Z,9.719174
2022-11-14T00:33:56.189Z,9.719341
2022-11-14T00:34:56.176Z,9.719348
2022-11-14T00:35:56.173Z,9.719256
2022-11-14T00:36:56.149Z,9.719359
2022-11-14T00:37:56.148Z,9.719314
2022-11-14T00:38:56.151Z,9.719265
2022-11-14T00:39:56.121Z,9.719326
2022-11-14T00:40:56.144Z,9.719329
2022-11-14T00:41:56.098Z,9.719208
2022-11-14T00:42:56.108Z,9.719201
2022-11-14T00:43:56.096Z,9.719169
2022-11-14T00:44:56.089Z,9.719210
2022-11-14T00:45:56.091Z,9.719186
2022-11-14T00:46:56.075Z,9.719219
2022-11-14T00:47:56.059Z,9.719223
2022-11-14T00:48:56.142Z,9.719253
2022-11-14T00:49:56.042Z,9.719260
2022-11-14T00:50:56.049Z,9.719220
2022-11-14T00:51:56.071Z,9.719351
2022-11-14T00:52:56.017Z,9.719313
2022-11-14T00:53:56.013Z,9.719308
2022-11-14T00:54:56.036Z,9.719296
2022-11-14T00:55:55.992Z,9.719242
2022-11-14T00:56:55.966Z,9.719226
2022-11-14T00:57:55.985Z,9.719249
2022-11-14T00:58:55.962Z,9.719314
2022-11-14T00:59:55.959Z,9.719275
2022-11-14T01:00:55.945Z,9.719235
2022-11-14T01:01:58.016Z,9.719248
2022-11-14T01:02:56.946Z,9.719278
2022-11-14T01:03:55.959Z,9.719280
2022-11-14T01:04:55.959Z,9.719265
2022-11-14T01:05:55.887Z,9.719257
2022-11-14T01:06:56.906Z,9.719253
2022-11-14T01:07:55.842Z,9.719274
2022-11-14T01:08:56.931Z,9.719133
2022-11-14T01:09:55.855Z,9.719046
2022-11-14T01:10:55.850Z,9.719080
2022-11-14T01:11:55.831Z,9.719035
2022-11-14T01:12:55.805Z,9.719071
2022-11-14T01:13:55.800Z,9.719121
2022-11-14T01:14:55.787Z,9.719159
2022-11-14T01:15:55.819Z,9.719084
2022-11-14T01:16:55.859Z,9.719050
2022-11-14T01:17:55.778Z,9.719234
2022-11-14T01:18:55.761Z,9.718979
2022-11-14T01:19:55.739Z,9.719058
2022-11-14T01:20:55.798Z,9.719074
2022-11-14T01:21:55.718Z,9.719221
2022-11-14T01:22:55.764Z,9.719174
2022-11-14T01:23:55.718Z,9.719217
2022-11-14T01:24:55.692Z,9.719100
2022-11-14T01:25:55.714Z,9.719209
2022-11-14T01:26:55.676Z,9.719147
2022-11-14T01:27:55.666Z,9.719167
2022-11-14T01:28:55.668Z,9.719184
2022-11-14T01:29:55.643Z,9.719168
2022-11-14T01:30:55.646Z,9.719184
2022-11-14T01:31:55.674Z,9.719057
2022-11-14T01:32:55.663Z,9.719141
2022-11-14T01:33:55.610Z,9.719162
2022-11-14T01:34:55.617Z,9.719039
2022-11-14T01:35:55.593Z,9.719233
2022-11-14T01:36:55.661Z,9.719115
2022-11-14T01:37:55.570Z,9.719095
2022-11-14T01:38:55.552Z,9.719123
2022-11-14T01:39:55.573Z,9.719178
2022-11-14T01:40:55.548Z,9.719193
2022-11-14T01:41:55.567Z,9.719173
2022-11-14T01:42:55.529Z,9.719244
2022-11-14T01:43:55.515Z,9.719199
2022-11-14T01:44:55.504Z,9.719207
2022-11-14T01:45:55.552Z,9.719214
2022-11-14T01:46:55.490Z,9.719275
2022-11-14T01:47:55.488Z,9.719215
2022-11-14T01:48:55.468Z,9.719296
2022-11-14T01:49:55.484Z,9.719306
2022-11-14T01:50:55.462Z,9.719345
2022-11-14T01:51:55.431Z,9.719165
2022-11-14T01:52:55.546Z,9.719099
2022-11-14T01:53:55.414Z,9.719119
2022-11-14T01:54:55.459Z,9.719173
2022-11-14T01:55:55.393Z,9.719133
2022-11-14T01:56:55.385Z,9.719176
2022-11-14T01:57:55.420Z,9.719227
2022-11-14T01:58:55.369Z,9.719226
2022-11-14T01:59:55.369Z,9.719170
2022-11-14T02:00:55.409Z,9.719185
2022-11-14T02:01:55.435Z,9.719154
2022-11-14T02:02:55.323Z,9.719234
2022-11-14T02:03:55.326Z,9.719220
2022-11-14T02:04:55.332Z,9.719233
2022-11-14T02:05:55.298Z,9.719207
2022-11-14T02:06:55.331Z,9.719193
2022-11-14T02:07:55.315Z,9.719194
2022-11-14T02:08:55.342Z,9.719153
2022-11-14T02:09:55.295Z,9.719149
2022-11-14T02:10:55.252Z,9.719150
2022-11-14T02:11:55.241Z,9.719172
2022-11-14T02:12:55.248Z,9.719049
2022-11-14T02:13:55.235Z,9.719008
2022-11-14T02:14:55.237Z,9.719081
2022-11-14T02:15:55.213Z,9.719080
2022-11-14T02:17:14.798Z,9.719071
2022-11-14T02:17:57.186Z,9.719184
2022-11-14T02:18:55.180Z,9.719217
2022-11-14T02:19:55.175Z,9.719471
2022-11-14T02:20:55.154Z,9.719122
2022-11-14T02:21:55.178Z,9.719568
2022-11-14T02:22:55.135Z,9.719355
2022-11-14T02:23:55.129Z,9.719320
2022-11-14T02:24:55.196Z,9.719353
2022-11-14T02:25:55.178Z,9.719264
2022-11-14T02:26:55.114Z,9.718950
2022-11-14T02:27:55.123Z,9.719018
2022-11-14T02:28:55.085Z,9.718860
2022-11-14T02:29:55.071Z,9.719251
2022-11-14T02:30:55.059Z,9.719238
2022-11-14T02:31:55.063Z,9.719297
2022-11-14T02:33:10.397Z,9.719150
2022-11-14T02:33:57.079Z,9.719238
2022-11-14T02:34:55.068Z,9.719177
2022-11-14T02:35:55.057Z,9.719119
2022-11-14T02:36:55.005Z,9.719144
2022-11-14T02:37:55.002Z,9.718969
2022-11-14T02:38:54.996Z,9.718865
2022-11-14T02:39:55.976Z,9.719284
2022-11-14T02:40:55.052Z,9.719271
2022-11-14T02:41:54.967Z,9.719221
2022-11-14T02:42:54.950Z,9.719305
2022-11-14T02:43:54.964Z,9.719245
2022-11-14T02:44:54.950Z,9.719157
2022-11-14T02:45:54.954Z,9.719136
2022-11-14T02:46:54.907Z,9.719286
2022-11-14T02:47:54.909Z,9.719156
2022-11-14T02:48:54.945Z,9.719100
2022-11-14T02:50:14.691Z,9.719010
2022-11-14T02:50:54.889Z,9.718873
2022-11-14T02:51:54.863Z,9.719060
2022-11-14T02:52:54.845Z,9.718878
2022-11-14T02:53:54.865Z,9.718933
2022-11-14T02:54:54.966Z,9.719200
2022-11-14T02:55:54.822Z,9.719107
2022-11-14T02:56:54.891Z,9.719258
2022-11-14T02:57:54.823Z,9.719151
2022-11-14T02:58:54.800Z,9.719014
2022-11-14T02:59:54.801Z,9.719170
2022-11-14T03:01:19.086Z,9.718971
2022-11-14T03:01:56.834Z,9.718112
2022-11-14T03:02:54.775Z,9.718970
2022-11-14T03:03:54.787Z,9.719121
2022-11-14T03:04:54.832Z,9.719257
2022-11-14T03:05:54.707Z,9.718906
2022-11-14T03:06:54.765Z,9.718981
2022-11-14T03:07:54.778Z,9.718939
2022-11-14T03:08:54.692Z,9.718574
2022-11-14T03:09:54.681Z,9.718198
2022-11-14T03:10:54.669Z,9.717855
2022-11-14T03:11:54.669Z,9.718003
2022-11-14T03:12:54.777Z,9.718003
2022-11-14T03:13:54.706Z,9.718003
2022-11-14T03:14:54.652Z,9.718358
2022-11-14T03:15:54.687Z,9.719017
2022-11-14T03:16:54.703Z,9.719131
2022-11-14T03:17:54.621Z,9.719349
2022-11-14T03:18:54.603Z,9.719376
2022-11-14T03:19:54.593Z,9.719338
2022-11-14T03:20:54.588Z,9.719340
2022-11-14T03:21:54.567Z,9.719295
2022-11-14T03:22:54.571Z,9.719167
2022-11-14T03:23:54.582Z,9.719209
2022-11-14T03:24:54.585Z,9.719286
2022-11-14T03:25:54.533Z,9.719062
2022-11-14T03:26:54.522Z,9.718755
2022-11-14T03:27:54.512Z,9.718758
2022-11-14T03:28:54.517Z,9.718833
2022-11-14T03:29:54.650Z,9.719049
2022-11-14T03:30:54.484Z,9.719191
2022-11-14T03:31:54.504Z,9.718904
2022-11-14T03:32:54.468Z,9.718875
2022-11-14T03:33:54.465Z,9.719073
2022-11-14T03:34:54.461Z,9.719090
2022-11-14T03:35:55.485Z,9.719178
2022-11-14T03:36:54.430Z,9.719118
2022-11-14T03:37:56.488Z,9.719182
2022-11-14T03:38:55.433Z,9.719107
2022-11-14T03:39:54.431Z,9.719177
2022-11-14T03:40:54.506Z,9.718891
2022-11-14T03:41:54.387Z,9.718779
2022-11-14T03:42:54.421Z,9.718904
2022-11-14T03:43:54.431Z,9.719036
2022-11-14T03:44:54.446Z,9.719118
2022-11-14T03:45:54.355Z,9.719082
2022-11-14T03:46:54.355Z,9.719020
2022-11-14T03:47:54.330Z,9.718907
2022-11-14T03:48:54.319Z,9.718926
2022-11-14T03:49:54.315Z,9.718956
2022-11-14T03:50:54.309Z,9.719114
2022-11-14T03:51:54.315Z,9.718966
2022-11-14T03:52:54.281Z,9.719166
2022-11-14T03:53:54.268Z,9.718967
2022-11-14T03:54:54.378Z,9.718834
2022-11-14T03:55:54.332Z,9.718687
2022-11-14T03:56:54.237Z,9.718843
2022-11-14T03:57:54.310Z,9.718925
2022-11-14T03:58:54.220Z,9.718924
2022-11-14T03:59:54.247Z,9.718927
2022-11-14T04:00:54.417Z,9.719074
2022-11-14T04:01:54.199Z,9.719028
2022-11-14T04:02:54.174Z,9.719189
2022-11-14T04:03:54.175Z,9.719297
2022-11-14T04:04:54.166Z,9.719254
2022-11-14T04:05:54.186Z,9.719135
2022-11-14T04:06:54.164Z,9.719124
2022-11-14T04:07:54.135Z,9.719060
2022-11-14T04:08:54.181Z,9.718978
2022-11-14T04:09:54.124Z,9.718873
2022-11-14T04:10:54.127Z,9.718752
2022-11-14T04:11:54.103Z,9.719072
2022-11-14T04:12:54.097Z,9.718990
2022-11-14T04:13:54.078Z,9.718925
2022-11-14T04:14:54.071Z,9.718963
2022-11-14T04:15:54.057Z,9.718884
2022-11-14T04:16:54.147Z,9.718863
2022-11-14T04:17:54.043Z,9.718964
2022-11-14T04:18:54.046Z,9.718915
2022-11-14T04:19:54.026Z,9.719116
2022-11-14T04:20:54.014Z,9.719092
2022-11-14T04:21:54.081Z,9.718991
2022-11-14T04:22:53.992Z,9.718996
2022-11-14T04:23:53.983Z,9.718928
2022-11-14T04:24:53.974Z,9.718980
2022-11-14T04:25:53.971Z,9.718905
2022-11-14T04:26:53.960Z,9.718739
2022-11-14T04:27:53.971Z,9.718963
2022-11-14T04:28:53.945Z,9.718999
2022-11-14T04:29:53.927Z,9.718767
2022-11-14T04:30:53.938Z,9.718779
2022-11-14T04:31:53.913Z,9.719131
2022-11-14T04:32:54.001Z,9.719126
2022-11-14T04:33:53.884Z,9.718994
2022-11-14T04:34:53.884Z,9.718938
2022-11-14T04:35:53.874Z,9.718891
2022-11-14T04:36:53.854Z,9.719065
2022-11-14T04:37:53.858Z,9.718927
2022-11-14T04:38:53.871Z,9.718863
2022-11-14T04:39:53.834Z,9.718886
2022-11-14T04:40:53.829Z,9.719035
2022-11-14T04:41:53.815Z,9.718946
2022-11-14T04:42:53.795Z,9.718681
2022-11-14T04:43:53.785Z,9.718699
2022-11-14T04:44:53.856Z,9.718932
2022-11-14T04:45:53.777Z,9.718863
2022-11-14T04:46:53.805Z,9.718755
2022-11-14T04:47:53.754Z,9.718713
2022-11-14T04:48:53.831Z,9.718908
2022-11-14T04:49:53.745Z,9.718945
2022-11-14T04:50:53.755Z,9.719069
2022-11-14T04:51:53.714Z,9.719032
2022-11-14T04:52:53.772Z,9.719051
2022-11-14T04:53:53.695Z,9.718871
2022-11-14T04:54:53.745Z,9.718811
2022-11-14T04:55:53.667Z,9.719308
2022-11-14T04:56:53.666Z,9.719542
2022-11-14T04:57:53.670Z,9.719145
2022-11-14T04:58:53.645Z,9.719160
2022-11-14T04:59:53.639Z,9.719503
2022-11-14T05:00:53.625Z,9.719489
2022-11-14T05:01:53.718Z,9.719733
2022-11-14T05:02:53.632Z,9.720057
2022-11-14T05:03:53.618Z,9.719902
2022-11-14T05:04:53.638Z,9.719893
2022-11-14T05:05:53.582Z,9.719372
2022-11-14T05:06:53.611Z,9.719420
2022-11-14T05:07:53.566Z,9.720200
2022-11-14T05:08:53.561Z,9.719278
2022-11-14T05:09:53.558Z,9.719236
2022-11-14T05:10:53.537Z,9.719419
2022-11-14T05:11:53.605Z,9.719453
2022-11-14T05:12:53.512Z,9.719514
2022-11-14T05:13:53.547Z,9.719139
2022-11-14T05:14:53.508Z,9.719092
2022-11-14T05:15:53.485Z,9.719340
2022-11-14T05:16:53.482Z,9.719242
2022-11-14T05:17:53.477Z,9.719244
2022-11-14T05:18:53.469Z,9.719146
2022-11-14T05:19:53.475Z,9.718887
2022-11-14T05:20:53.486Z,9.718661
2022-11-14T05:21:53.473Z,9.718954
2022-11-14T05:22:53.433Z,9.719260
2022-11-14T05:23:53.505Z,9.719210
2022-11-14T05:24:53.423Z,9.719330
2022-11-14T05:25:58.564Z,9.719108
2022-11-14T05:26:54.439Z,9.719425
2022-11-14T05:27:53.384Z,9.719424
2022-11-14T05:28:53.398Z,9.719221
2022-11-14T05:29:53.366Z,9.719225
2022-11-14T05:30:53.348Z,9.719009
2022-11-14T05:31:53.384Z,9.719056
2022-11-14T05:32:53.361Z,9.719198
2022-11-14T05:33:53.328Z,9.719445
2022-11-14T05:34:53.333Z,9.719280
2022-11-14T05:35:53.396Z,9.718995
2022-11-14T05:36:53.295Z,9.719160
2022-11-14T05:37:58.765Z,9.719238
2022-11-14T05:38:55.280Z,9.719139
2022-11-14T05:39:53.268Z,9.718889
2022-11-14T05:40:53.338Z,9.719258
2022-11-14T05:41:53.310Z,9.719418
2022-11-14T05:42:53.275Z,9.719195
2022-11-14T05:43:53.227Z,9.719275
2022-11-14T05:44:53.269Z,9.719369
2022-11-14T05:45:53.228Z,9.719616
2022-11-14T05:46:53.293Z,9.719405
2022-11-14T05:47:53.195Z,9.719192
2022-11-14T05:48:53.190Z,9.719280
2022-11-14T05:49:53.168Z,9.719256
2022-11-14T05:50:53.154Z,9.719139
2022-11-14T05:51:53.165Z,9.719128
2022-11-14T05:52:53.158Z,9.719324
2022-11-14T05:53:53.139Z,9.719081
2022-11-14T05:54:53.156Z,9.719319
2022-11-14T05:55:53.170Z,9.719230
2022-11-14T05:56:53.173Z,9.719256
2022-11-14T05:57:53.093Z,9.719213
2022-11-14T05:58:53.087Z,9.719310
2022-11-14T05:59:53.078Z,9.719286
2022-11-14T06:00:54.520Z,9.719317
2022-11-14T06:01:54.119Z,9.719158
2022-11-14T06:02:53.057Z,9.719324
2022-11-14T06:03:53.054Z,9.719386
2022-11-14T06:04:53.043Z,9.719243
2022-11-14T06:05:53.046Z,9.719475
2022-11-14T06:06:53.068Z,9.719173
2022-11-14T06:07:53.008Z,9.719225
2022-11-14T06:08:53.019Z,9.719167
2022-11-14T06:09:52.990Z,9.719130
2022-11-14T06:10:52.979Z,9.719275
2022-11-14T06:11:52.976Z,9.719300
2022-11-14T06:12:52.963Z,9.719258
2022-11-14T06:13:52.965Z,9.719286
2022-11-14T06:14:53.014Z,9.719204
2022-11-14T06:15:52.927Z,9.719316
2022-11-14T06:16:52.979Z,9.719193
2022-11-14T06:17:52.910Z,9.719179
2022-11-14T06:18:52.983Z,9.719151
2022-11-14T06:19:52.889Z,9.718973
2022-11-14T06:20:52.874Z,9.719020
2022-11-14T06:21:52.930Z,9.719009
2022-11-14T06:22:52.865Z,9.719071
2022-11-14T06:23:52.849Z,9.719189
2022-11-14T06:24:52.837Z,9.719201
2022-11-14T06:25:52.841Z,9.719136
2022-11-14T06:26:52.821Z,9.719044
2022-11-14T06:27:52.840Z,9.719092
2022-11-14T06:28:52.825Z,9.719053
2022-11-14T06:29:52.811Z,9.719158
2022-11-14T06:30:52.787Z,9.719175
2022-11-14T06:31:52.781Z,9.719203
2022-11-14T06:32:52.801Z,9.719214
2022-11-14T06:33:52.780Z,9.719181
2022-11-14T06:34:52.741Z,9.719123
2022-11-14T06:35:53.754Z,9.719113
2022-11-14T06:36:52.732Z,9.719132
2022-11-14T06:37:52.719Z,9.719050
2022-11-14T06:38:52.743Z,9.719122
2022-11-14T06:39:52.700Z,9.719149
2022-11-14T06:40:52.686Z,9.719098
2022-11-14T06:41:52.684Z,9.719181
2022-11-14T06:42:52.701Z,9.719148
2022-11-14T06:43:52.658Z,9.719109
2022-11-14T06:44:52.666Z,9.719155
2022-11-14T06:45:52.644Z,9.719205
2022-11-14T06:46:53.654Z,9.719124
2022-11-14T06:47:52.622Z,9.719204
2022-11-14T06:48:52.648Z,9.719163
2022-11-14T06:49:52.610Z,9.719150
2022-11-14T06:50:52.599Z,9.719172
2022-11-14T06:51:52.594Z,9.719195
2022-11-14T06:52:52.620Z,9.719126
2022-11-14T06:53:52.589Z,9.719167
2022-11-14T06:54:52.554Z,9.719075
2022-11-14T06:55:52.552Z,9.719192
2022-11-14T06:56:52.601Z,9.719212
2022-11-14T06:57:52.554Z,9.719207
2022-11-14T06:58:52.584Z,9.719316
2022-11-14T06:59:52.508Z,9.719304
2022-11-14T07:00:52.527Z,9.719174
2022-11-14T07:01:52.568Z,9.719225
2022-11-14T07:02:52.564Z,9.719186
2022-11-14T07:03:52.492Z,9.719173
2022-11-14T07:04:52.459Z,9.719150
2022-11-14T07:05:52.448Z,9.719083
2022-11-14T07:06:52.542Z,9.719168
2022-11-14T07:07:52.426Z,9.719101
2022-11-14T07:08:52.447Z,9.719099
2022-11-14T07:09:52.436Z,9.719207
2022-11-14T07:10:52.437Z,9.719261
2022-11-14T07:11:52.404Z,9.719234
2022-11-14T07:12:52.441Z,9.719288
2022-11-14T07:13:52.393Z,9.719218
2022-11-14T07:14:52.388Z,9.719151
2022-11-14T07:15:52.362Z,9.719001
2022-11-14T07:16:52.355Z,9.718975
2022-11-14T07:17:52.361Z,9.719115
2022-11-14T07:18:52.374Z,9.719048
2022-11-14T07:19:52.332Z,9.719087
2022-11-14T07:20:52.307Z,9.719174
2022-11-14T07:21:52.310Z,9.719133
2022-11-14T07:22:52.291Z,9.719224
2022-11-14T07:23:52.288Z,9.719285
2022-11-14T07:24:52.340Z,9.719300
2022-11-14T07:25:52.284Z,9.719240
2022-11-14T07:26:52.251Z,9.719116
2022-11-14T07:27:52.248Z,9.719191
2022-11-14T07:28:55.483Z,9.719237
2022-11-14T07:29:54.244Z,9.719214
2022-11-14T07:30:52.273Z,9.719416
2022-11-14T07:31:52.228Z,9.719460
2022-11-14T07:32:52.218Z,9.719435
2022-11-14T07:33:52.197Z,9.719213
2022-11-14T07:34:52.173Z,9.719220
2022-11-14T07:35:53.168Z,9.719333
2022-11-14T07:36:52.177Z,9.719262
2022-11-14T07:37:52.178Z,9.719208
2022-11-14T07:38:52.185Z,9.719270
2022-11-14T07:39:52.144Z,9.719295
2022-11-14T07:40:56.661Z,9.719188
2022-11-14T07:41:53.125Z,9.719270
2022-11-14T07:42:52.130Z,9.719267
2022-11-14T07:43:52.116Z,9.719461
2022-11-14T07:44:52.137Z,9.719411
2022-11-14T07:45:52.062Z,9.719157
2022-11-14T07:46:52.065Z,9.718908
2022-11-14T07:47:52.169Z,9.718925
2022-11-14T07:48:52.043Z,9.719167
2022-11-14T07:49:52.036Z,9.718934
2022-11-14T07:50:52.031Z,9.719102
2022-11-14T07:51:52.070Z,9.718856
2022-11-14T07:52:52.035Z,9.718912
2022-11-14T07:53:52.000Z,9.719105
2022-11-14T07:54:52.037Z,9.719199
2022-11-14T07:55:52.015Z,9.718987
2022-11-14T07:56:51.997Z,9.719210
2022-11-14T07:57:51.981Z,9.719234
2022-11-14T07:58:52.038Z,9.719143
2022-11-14T07:59:51.996Z,9.719070
2022-11-14T08:00:51.968Z,9.719270
2022-11-14T08:01:51.919Z,9.719088
2022-11-14T08:02:51.913Z,9.719203
2022-11-14T08:03:51.897Z,9.719277
2022-11-14T08:04:51.914Z,9.719155
2022-11-14T08:05:51.873Z,9.719193
2022-11-14T08:06:51.944Z,9.719184
2022-11-14T08:07:51.875Z,9.718977
2022-11-14T08:08:51.867Z,9.718823
2022-11-14T08:09:51.857Z,9.718949
2022-11-14T08:10:51.825Z,9.718970
2022-11-14T08:11:51.864Z,9.719210
2022-11-14T08:13:10.661Z,9.719154
2022-11-14T08:13:52.822Z,9.719020
2022-11-14T08:14:51.792Z,9.719241
2022-11-14T08:15:51.803Z,9.719228
2022-11-14T08:16:51.786Z,9.719129
2022-11-14T08:17:51.757Z,9.719170
2022-11-14T08:18:51.748Z,9.719452
2022-11-14T08:19:51.737Z,9.719385
2022-11-14T08:20:51.734Z,9.719335
2022-11-14T08:21:51.788Z,9.719232
2022-11-14T08:22:51.720Z,9.719274
2022-11-14T08:23:51.692Z,9.719260
2022-11-14T08:24:51.680Z,9.719304
2022-11-14T08:25:51.671Z,9.719258
2022-11-14T08:26:51.737Z,9.719382
2022-11-14T08:27:51.662Z,9.719276
2022-11-14T08:28:51.667Z,9.719310
2022-11-14T08:29:51.638Z,9.719210
2022-11-14T08:30:51.665Z,9.719190
2022-11-14T08:31:55.685Z,9.719181
2022-11-14T08:32:52.623Z,9.719213
2022-11-14T08:33:51.603Z,9.719235
2022-11-14T08:34:51.585Z,9.719129
2022-11-14T08:35:51.584Z,9.718820
2022-11-14T08:36:51.599Z,9.719003
2022-11-14T08:37:51.570Z,9.719079
2022-11-14T08:38:52.298Z,9.719159
2022-11-14T08:39:52.538Z,9.719234
2022-11-14T08:40:51.563Z,9.719234
2022-11-14T08:41:51.549Z,9.719211
2022-11-14T08:42:51.545Z,9.719297
2022-11-14T08:43:51.508Z,9.719115
2022-11-14T08:44:52.291Z,9.719211
2022-11-14T08:45:52.523Z,9.719108
2022-11-14T08:46:51.491Z,9.719313
2022-11-14T08:47:51.472Z,9.719193
2022-11-14T08:48:51.516Z,9.719281
2022-11-14T08:49:51.452Z,9.719349
2022-11-14T08:51:24.366Z,9.719277
2022-11-14T08:51:51.430Z,9.719255
2022-11-14T08:52:51.418Z,9.719157
2022-11-14T08:53:51.412Z,9.719103
2022-11-14T08:54:51.423Z,9.719183
2022-11-14T08:55:51.389Z,9.719161
2022-11-14T08:56:51.371Z,9.718707
2022-11-14T08:57:51.361Z,9.719002
2022-11-14T08:58:51.363Z,9.719184
2022-11-14T08:59:51.361Z,9.719380
2022-11-14T09:00:51.336Z,9.719488
2022-11-14T09:01:51.370Z,9.719319
2022-11-14T09:02:51.378Z,9.719342
2022-11-14T09:03:55.409Z,9.719355
2022-11-14T09:04:53.392Z,9.719297
2022-11-14T09:05:51.297Z,9.719264
2022-11-14T09:06:51.417Z,9.719288
2022-11-14T09:07:51.261Z,9.719234
2022-11-14T09:08:51.265Z,9.719220
2022-11-14T09:09:51.254Z,9.719297
2022-11-14T09:10:51.253Z,9.719350
2022-11-14T09:11:51.227Z,9.719331
2022-11-14T09:12:51.229Z,9.719288
2022-11-14T09:13:51.206Z,9.719240
2022-11-14T09:14:51.222Z,9.719348
2022-11-14T09:15:51.190Z,9.719172
2022-11-14T09:16:51.186Z,9.719235
2022-11-14T09:17:51.186Z,9.719379
2022-11-14T09:18:51.160Z,9.719328
2022-11-14T09:19:51.153Z,9.719448
2022-11-14T09:20:51.133Z,9.719344
2022-11-14T09:21:51.134Z,9.719333
2022-11-14T09:22:51.171Z,9.719253
2022-11-14T09:23:51.111Z,9.719208
2022-11-14T09:24:51.138Z,9.719112
2022-11-14T09:25:51.095Z,9.719185
2022-11-14T09:26:56.389Z,9.719157
2022-11-14T09:27:53.095Z,9.719326
2022-11-14T09:28:51.083Z,9.719243
2022-11-14T09:29:51.052Z,9.719242
2022-11-14T09:30:51.040Z,9.719193
2022-11-14T09:31:51.051Z,9.719345
2022-11-14T09:32:51.030Z,9.719332
2022-11-14T09:33:51.018Z,9.719305
2022-11-14T09:34:51.017Z,9.719174
2022-11-14T09:35:51.016Z,9.719140
2022-11-14T09:36:51.005Z,9.719275
2022-11-14T09:37:50.971Z,9.719201
2022-11-14T09:38:50.966Z,9.719213
2022-11-14T09:39:50.949Z,9.719222
2022-11-14T09:40:50.953Z,9.719224
2022-11-14T09:41:50.954Z,9.719307
2022-11-14T09:42:50.967Z,9.719276
2022-11-14T09:43:50.925Z,9.719316
2022-11-14T09:44:50.916Z,9.719213
2022-11-14T09:45:50.906Z,9.719317
2022-11-14T09:46:50.905Z,9.719272
2022-11-14T09:47:50.896Z,9.719308
2022-11-14T09:48:50.868Z,9.719228
2022-11-14T09:49:50.922Z,9.719178
2022-11-14T09:50:50.854Z,9.719153
2022-11-14T09:51:50.834Z,9.719176
2022-11-14T09:52:50.828Z,9.719104
2022-11-14T09:53:50.820Z,9.719114
2022-11-14T09:54:50.834Z,9.719012
2022-11-14T09:55:50.851Z,9.719134
2022-11-14T09:56:50.795Z,9.719137
2022-11-14T09:57:50.785Z,9.719095
2022-11-14T09:58:50.778Z,9.719021
2022-11-14T09:59:50.778Z,9.718960
2022-11-14T10:00:50.769Z,9.719008
2022-11-14T10:01:50.755Z,9.719173
2022-11-14T10:02:50.744Z,9.719139
2022-11-14T10:03:50.744Z,9.719278
2022-11-14T10:04:50.803Z,9.719243
2022-11-14T10:05:50.734Z,9.719188
2022-11-14T10:06:50.778Z,9.719222
2022-11-14T10:07:50.736Z,9.719174
2022-11-14T10:08:50.686Z,9.719067
2022-11-14T10:09:50.672Z,9.719049
2022-11-14T10:10:50.671Z,9.719132
2022-11-14T10:11:50.667Z,9.719235
2022-11-14T10:12:50.693Z,9.719340
2022-11-14T10:13:50.661Z,9.719279
2022-11-14T10:14:50.692Z,9.719247
2022-11-14T10:15:50.634Z,9.719243
2022-11-14T10:16:50.684Z,9.719179
2022-11-14T10:17:50.583Z,9.719214
2022-11-14T10:18:50.607Z,9.719134
2022-11-14T10:19:50.574Z,9.719161
2022-11-14T10:20:50.567Z,9.719285
2022-11-14T10:21:50.548Z,9.719427
2022-11-14T10:22:50.594Z,9.719667
2022-11-14T10:23:50.531Z,9.719486
2022-11-14T10:24:50.523Z,9.719576
2022-11-14T10:25:50.531Z,9.719476
2022-11-14T10:26:50.505Z,9.719505
2022-11-14T10:27:55.866Z,9.719328
2022-11-14T10:28:51.491Z,9.719421
2022-11-14T10:29:50.474Z,9.719294
2022-11-14T10:30:50.521Z,9.719203
2022-11-14T10:31:50.475Z,9.719057
2022-11-14T10:32:50.453Z,9.719097
2022-11-14T10:33:50.434Z,9.719086
2022-11-14T10:34:50.466Z,9.719087
2022-11-14T10:35:50.433Z,9.719099
2022-11-14T10:36:50.421Z,9.719289
2022-11-14T10:37:50.397Z,9.719300
2022-11-14T10:38:50.434Z,9.719171
2022-11-14T10:39:50.378Z,9.719227
2022-11-14T10:40:50.363Z,9.719269
2022-11-14T10:41:58.012Z,9.719150
2022-11-14T10:42:52.351Z,9.719215
2022-11-14T10:43:50.348Z,9.719218
2022-11-14T10:44:50.327Z,9.719319
2022-11-14T10:45:50.323Z,9.719262
2022-11-14T10:46:50.352Z,9.719275
2022-11-14T10:47:50.329Z,9.719228
2022-11-14T10:48:50.301Z,9.719154
2022-11-14T10:49:50.283Z,9.719184
2022-11-14T10:50:50.272Z,9.719203
2022-11-14T10:51:50.300Z,9.719206
2022-11-14T10:52:50.287Z,9.719204
2022-11-14T10:53:50.252Z,9.719154
2022-11-14T10:54:50.287Z,9.719154
2022-11-14T10:56:03.603Z,9.719154
2022-11-14T10:56:52.215Z,9.719154
2022-11-14T10:57:50.355Z,9.719154
2022-11-14T10:58:50.535Z,9.719154
2022-11-14T10:59:50.192Z,9.719154
2022-11-14T11:00:50.290Z,9.719154
2022-11-14T11:01:50.167Z,9.719154
2022-11-14T11:02:50.150Z,9.719310
2022-11-14T11:03:50.273Z,9.719287
2022-11-14T11:04:50.158Z,9.719135
2022-11-14T11:05:50.124Z,9.719232
2022-11-14T11:06:50.226Z,9.719200
2022-11-14T11:07:50.115Z,9.719094
2022-11-14T11:08:50.562Z,9.719321
2022-11-14T11:09:50.147Z,9.719126
2022-11-14T11:10:50.115Z,9.718923
2022-11-14T11:11:50.054Z,9.719113
2022-11-14T11:12:50.316Z,9.719087
2022-11-14T11:13:50.050Z,9.719321
2022-11-14T11:14:50.054Z,9.718638
2022-11-14T11:15:50.024Z,9.718956
2022-11-14T11:16:50.020Z,9.718801
2022-11-14T11:17:50.010Z,9.718689
2022-11-14T11:18:50.906Z,9.719761
2022-11-14T11:19:51.084Z,9.719316
2022-11-14T11:20:50.010Z,9.719293
2022-11-14T11:21:50.071Z,9.719193
2022-11-14T11:22:49.964Z,9.719101
2022-11-14T11:23:49.965Z,9.719164
2022-11-14T11:24:49.921Z,9.719202
2022-11-14T11:25:49.927Z,9.719379
2022-11-14T11:26:49.932Z,9.719271
2022-11-14T11:27:49.904Z,9.719380
2022-11-14T11:28:49.884Z,9.718914
2022-11-14T11:29:49.906Z,9.718823
2022-11-14T11:30:54.259Z,9.719111
2022-11-14T11:31:50.868Z,9.720498
2022-11-14T11:32:49.876Z,9.719476
2022-11-14T11:33:49.884Z,9.719409
2022-11-14T11:34:49.858Z,9.719009
2022-11-14T11:35:49.828Z,9.719132
2022-11-14T11:36:49.879Z,9.719296
2022-11-14T11:37:49.818Z,9.719172
2022-11-14T11:38:49.802Z,9.719268
2022-11-14T11:39:49.793Z,9.719399
2022-11-14T11:40:49.787Z,9.719163
2022-11-14T11:42:08.857Z,9.719306
2022-11-14T11:43:56.528Z,9.719120
2022-11-14T11:44:50.745Z,9.718971
2022-11-14T11:45:49.774Z,9.718957